Time;durP1;ratioP1;P1;durP2;ratioP2;P2;SDS_P1;SDS_P2;PMS_P1;PMS_P2;Temp;Humidity;BMP_temperature;BMP_pressure;BME280_temperature;BME280_humidity;BME280_pressure;Samples;Min_cycle;Max_cycle;Signal;HPM_P1;HPM_P2
2023/06/01 00:02:06;;;;;;;26.33;6.70;;;12.90;99.90;;;11.68;100.00;101411.22;4972688;28;20041;-76
2023/06/01 00:04:32;;;;;;;25.65;6.03;;;12.80;99.90;;;11.70;100.00;101414.66;4966813;28;20431;-76
2023/06/01 00:07:01;;;;;;;;;;;12.90;99.90;;;11.59;100.00;101407.16;4936638;28;20050;-76
2023/06/01 00:09:27;;;;;;;24.77;6.90;;;12.90;99.90;;;11.55;100.00;101412.63;4976912;28;19914;-77
2023/06/01 00:11:53;;;;;;;27.70;7.00;;;12.70;99.90;;;11.54;100.00;101413.56;4972663;28;20041;-76
2023/06/01 00:14:19;;;;;;;22.00;6.18;;;12.70;99.90;;;11.53;100.00;101415.31;4963660;28;20035;-76
2023/06/01 00:16:45;;;;;;;22.88;6.55;;;12.70;99.90;;;11.51;100.00;101417.16;4976281;28;20038;-76
2023/06/01 00:19:11;;;;;;;38.75;7.10;;;12.60;99.90;;;11.45;100.00;101409.50;4956636;28;20092;-76
2023/06/01 00:21:37;;;;;;;22.23;6.07;;;12.60;99.90;;;11.42;100.00;101406.97;4965413;28;20042;-76
2023/06/01 00:24:03;;;;;;;26.70;7.07;;;12.60;99.90;;;11.41;100.00;101410.53;4959620;28;20477;-77
2023/06/01 00:26:33;;;;;;;25.35;6.63;;;12.50;99.90;;;11.42;100.00;101405.19;4969479;28;20574;-77
2023/06/01 00:29:01;;;;;;;35.55;7.22;;;12.50;99.90;;;11.42;100.00;101409.63;4972831;28;20055;-76
2023/06/01 00:31:27;;;;;;;27.58;6.28;;;12.50;99.90;;;11.39;100.00;101413.22;4973214;28;20046;-77
2023/06/01 00:33:53;;;;;;;32.15;6.93;;;12.50;99.90;;;11.37;100.00;101407.16;4964941;28;20507;-76
2023/06/01 00:36:19;;;;;;;;;;;12.50;99.90;;;11.31;100.00;101410.03;4949837;28;20499;-76
2023/06/01 00:38:45;;;;;;;26.38;6.05;;;12.40;99.90;;;11.22;100.00;101408.59;4977610;28;19921;-77
2023/06/01 00:41:11;;;;;;;27.55;6.75;;;12.40;99.90;;;11.19;100.00;101398.19;4974601;28;20050;-77
2023/06/01 00:43:37;;;;;;;27.17;7.10;;;12.40;99.90;;;11.18;100.00;101396.47;4969476;28;20029;-76
2023/06/01 00:46:03;;;;;;;28.50;6.93;;;12.40;99.90;;;11.16;100.00;101397.44;4972011;28;20542;-76
2023/06/01 00:48:29;;;;;;;25.48;7.22;;;12.30;99.90;;;11.12;100.00;101399.31;4963491;28;20037;-77
2023/06/01 00:50:57;;;;;;;29.70;6.80;;;12.30;99.90;;;11.09;100.00;101399.47;4971923;28;20042;-76
2023/06/01 00:53:24;;;;;;;27.30;6.85;;;12.20;99.90;;;10.99;100.00;101396.31;4957392;28;20049;-77
2023/06/01 00:55:50;;;;;;;20.73;7.38;;;12.20;99.90;;;10.97;100.00;101400.78;4973239;28;20037;-77
2023/06/01 00:58:16;;;;;;;24.08;6.65;;;12.10;99.90;;;10.92;100.00;101400.09;4968933;28;20074;-77
2023/06/01 01:00:42;;;;;;;30.25;7.45;;;12.10;99.90;;;10.96;100.00;101401.69;4986370;28;20037;-77
2023/06/01 01:03:09;;;;;;;28.83;7.60;;;12.10;99.90;;;10.92;100.00;101409.78;4973823;28;20049;-76
2023/06/01 01:05:39;;;;;;;27.50;6.97;;;12.10;99.90;;;10.90;100.00;101398.44;4976300;28;20085;-77
2023/06/01 01:08:36;;;;;;;32.90;7.80;;;12.00;99.90;;;10.86;100.00;101401.19;4976111;28;20032;-77
2023/06/01 01:11:15;;;;;;;;;;;12.00;99.90;;;10.80;100.00;101405.84;4973972;28;20499;-77
2023/06/01 01:13:52;;;;;;;26.52;7.50;;;12.00;99.90;;;10.79;100.00;101404.09;4975998;28;20355;-77
2023/06/01 01:16:30;;;;;;;37.00;7.55;;;11.90;99.90;;;10.74;100.00;101406.03;4974882;28;20741;-77
2023/06/01 01:19:17;;;;;;;31.92;8.50;;;11.90;99.90;;;10.67;100.00;101401.00;4973250;28;20065;-76
2023/06/01 01:22:03;;;;;;;33.95;8.80;;;11.90;99.90;;;10.66;100.00;101401.91;4970867;28;20089;-77
2023/06/01 01:25:25;;;;;;;32.88;8.57;;;11.80;99.90;;;10.61;100.00;101395.09;4949218;28;20031;-76
2023/06/01 01:28:42;;;;;;;38.10;8.18;;;11.80;99.90;;;10.54;100.00;101401.47;4987587;28;20034;-76
2023/06/01 01:31:13;;;;;;;39.35;9.10;;;11.80;99.90;;;10.52;100.00;101396.28;4976241;28;20042;-76
2023/06/01 01:33:41;;;;;;;36.83;7.80;;;11.70;99.90;;;10.52;100.00;101387.50;4961792;28;20050;-76
2023/06/01 01:36:08;;;;;;;25.38;7.97;;;11.70;99.90;;;10.49;100.00;101391.13;4947343;28;20050;-77
2023/06/01 01:38:37;;;;;;;31.02;8.05;;;11.70;99.90;;;10.49;100.00;101395.53;4946987;28;20577;-77
2023/06/01 01:41:04;;;;;;;33.92;8.98;;;11.70;99.90;;;10.50;100.00;101395.47;4972282;28;20684;-76
2023/06/01 01:43:31;;;;;;;31.10;8.95;;;11.70;99.90;;;10.47;100.00;101392.94;4956658;28;20510;-76
2023/06/01 01:46:13;;;;;;;28.00;8.55;;;;;;;10.41;100.00;101387.88;4963147;28;20038;-76
2023/06/01 01:49:02;;;;;;;37.30;9.75;;;11.60;99.90;;;10.42;100.00;101393.09;4973369;28;20104;-76
2023/06/01 01:52:06;;;;;;;36.40;9.52;;;11.60;99.90;;;10.40;100.00;101380.91;4965971;28;20097;-76
2023/06/01 01:54:36;;;;;;;34.03;9.25;;;11.60;99.90;;;10.39;100.00;101385.34;4971145;28;20125;-76
2023/06/01 01:57:04;;;;;;;35.97;9.98;;;11.60;99.90;;;10.38;100.00;101382.75;4963745;28;20050;-76
2023/06/01 01:59:31;;;;;;;38.20;9.73;;;11.60;99.90;;;10.39;100.00;101380.06;4950804;28;20058;-76
2023/06/01 02:01:58;;;;;;;34.70;9.45;;;11.60;99.90;;;10.40;100.00;101383.53;4968527;28;20553;-76
2023/06/01 02:04:23;;;;;;;34.50;9.88;;;11.50;99.90;;;10.38;100.00;101388.00;4966395;28;20037;-77
2023/06/01 02:06:49;;;;;;;44.35;10.20;;;11.50;99.90;;;10.33;100.00;101377.63;4971382;28;20491;-76
2023/06/01 02:09:15;;;;;;;;;;;11.50;99.90;;;10.27;100.00;101378.66;4963357;28;20626;-77
2023/06/01 02:11:41;;;;;;;35.13;8.43;;;11.40;99.90;;;10.22;100.00;101385.03;4968888;28;19948;-77
2023/06/01 02:14:07;;;;;;;43.42;10.38;;;11.40;99.90;;;10.22;100.00;101380.63;4969926;28;20035;-77
2023/06/01 02:16:33;;;;;;;32.95;9.02;;;11.40;99.90;;;10.19;100.00;101374.59;4971665;28;20050;-77
2023/06/01 02:18:59;;;;;;;33.90;9.07;;;11.40;99.90;;;10.20;100.00;101368.44;4963644;28;20042;-77
2023/06/01 02:21:26;;;;;;;36.55;10.07;;;11.40;99.90;;;10.17;100.00;101369.41;4971488;28;20382;-78
2023/06/01 02:23:51;;;;;;;34.40;9.82;;;11.30;99.90;;;10.15;100.00;101371.22;4970146;28;20050;-77
2023/06/01 02:26:18;;;;;;;33.50;9.25;;;11.30;99.90;;;10.14;100.00;101381.78;4962014;28;20522;-76
2023/06/01 02:28:44;;;;;;;37.88;9.73;;;11.30;99.90;;;10.13;100.00;101380.06;4965747;28;20388;-77
2023/06/01 02:31:10;;;;;;;33.90;9.80;;;11.30;99.90;;;10.13;100.00;101383.56;4962814;28;20086;-77
2023/06/01 02:33:37;;;;;;;26.48;8.82;;;11.30;99.90;;;10.13;100.00;101385.31;4970733;28;20310;-77
2023/06/01 02:36:03;;;;;;;31.75;9.32;;;11.30;99.90;;;10.18;100.00;101397.41;4971348;28;22990;-77
2023/06/01 02:38:29;;;;;;;25.98;9.30;;;11.40;99.90;;;10.26;100.00;101384.00;4974127;28;20082;-77
2023/06/01 02:40:55;;;;;;;31.98;9.55;;;11.40;99.90;;;10.29;100.00;101383.91;4970752;28;20031;-77
2023/06/01 02:43:21;;;;;;;35.13;9.40;;;11.50;99.90;;;10.38;100.00;101388.84;4954703;28;20115;-78
2023/06/01 02:45:47;;;;;;;36.20;9.88;;;11.50;99.90;;;10.52;100.00;101384.88;4937468;28;20081;-77
2023/06/01 02:48:12;;;;;;;30.52;10.35;;;11.70;99.90;;;10.62;100.00;101387.13;4974050;28;20061;-77
2023/06/01 02:50:38;;;;;;;32.95;8.77;;;11.70;99.90;;;10.67;100.00;101398.38;4975453;28;20034;-76
2023/06/01 02:53:05;;;;;;;34.75;9.93;;;11.80;99.90;;;10.78;100.00;101395.34;4977188;28;20046;-76
2023/06/01 02:55:30;;;;;;;33.00;8.35;;;11.90;99.90;;;10.87;100.00;101386.25;4958924;28;20137;-77
2023/06/01 02:57:56;;;;;;;30.42;9.13;;;12.00;99.90;;;10.94;100.00;101385.09;4972659;28;20112;-77
2023/06/01 03:00:22;;;;;;;26.92;8.40;;;12.00;99.90;;;10.89;100.00;101384.41;4964598;28;20113;-77
2023/06/01 03:02:49;;;;;;;28.48;9.18;;;12.10;99.90;;;10.95;100.00;101383.28;4974998;28;20044;-77
2023/06/01 03:05:15;;;;;;;30.60;8.68;;;12.10;99.90;;;11.02;100.00;101382.16;4973697;28;20026;-77
2023/06/01 03:07:41;;;;;;;27.83;8.68;;;12.10;99.90;;;11.08;100.00;101380.16;4966593;28;20038;-76
2023/06/01 03:10:08;;;;;;;20.15;7.50;;;12.20;99.90;;;11.11;100.00;101379.19;4941113;28;20045;-77
2023/06/01 03:12:34;;;;;;;21.92;7.70;;;12.20;99.90;;;11.07;100.00;101380.22;4986721;28;20058;-76
2023/06/01 03:15:00;;;;;;;23.73;8.52;;;12.30;99.90;;;11.08;100.00;101382.78;4970662;28;20030;-76
2023/06/01 03:17:26;;;;;;;24.40;6.50;;;12.30;99.90;;;11.07;100.00;101369.66;4966101;28;20046;-78
2023/06/01 03:19:51;;;;;;;20.90;6.18;;;12.30;99.90;;;11.09;100.00;101375.72;4973398;28;20046;-77
2023/06/01 03:22:17;;;;;;;25.20;7.82;;;12.30;99.90;;;11.16;100.00;101377.22;4974150;28;20027;-76
2023/06/01 03:24:44;;;;;;;27.55;7.43;;;12.40;99.90;;;11.21;100.00;101370.00;4966900;28;20058;-77
2023/06/01 03:27:13;;;;;;;21.70;7.97;;;12.30;99.90;;;11.25;100.00;101384.78;4976191;28;20121;-76
2023/06/01 03:29:38;;;;;;;34.55;8.48;;;12.40;99.90;;;11.28;100.00;101384.66;4941639;28;20039;-76
2023/06/01 03:32:05;;;;;;;18.85;7.10;;;12.40;99.90;;;11.29;100.00;101385.50;4964033;28;20121;-76
2023/06/01 03:34:32;;;;;;;23.83;5.93;;;12.40;99.90;;;11.26;100.00;101383.00;4973899;28;20026;-77
2023/06/01 03:36:58;;;;;;;28.20;6.88;;;12.40;99.90;;;11.26;100.00;101388.28;4966503;28;20040;-77
2023/06/01 03:39:24;;;;;;;27.52;7.70;;;12.40;99.90;;;11.27;100.00;101393.50;4986879;28;20493;-76
2023/06/01 03:41:50;;;;;;;22.27;7.35;;;12.50;99.90;;;11.33;100.00;101387.09;4964367;28;20089;-76
2023/06/01 03:44:16;;;;;;;;;;;12.50;99.90;;;11.34;99.54;101394.09;4975689;28;20517;-76
2023/06/01 03:46:41;;;;;;;19.55;6.53;;;12.50;99.90;;;11.36;99.46;101387.00;5003578;28;20408;-76
2023/06/01 03:49:07;;;;;;;17.85;5.78;;;12.50;99.90;;;11.34;98.83;101401.13;4978603;28;20038;-76
2023/06/01 03:51:33;;;;;;;27.98;8.07;;;12.50;99.90;;;11.39;99.26;101399.19;4967990;28;20034;-76
2023/06/01 03:53:59;;;;;;;24.33;7.28;;;12.60;99.90;;;11.41;98.73;101398.22;4974946;28;20038;-76
2023/06/01 03:56:25;;;;;;;;;;;12.50;99.90;;;11.39;98.84;101394.78;4972371;28;20043;-78
2023/06/01 03:58:51;;;;;;;20.38;7.05;;;12.50;99.90;;;11.47;99.02;101397.13;5003623;28;19922;-75
2023/06/01 04:01:19;;;;;;;22.88;7.18;;;12.60;99.90;;;11.54;98.83;101403.88;4977248;28;20027;-76
2023/06/01 04:03:48;;;;;;;27.75;7.30;;;12.60;99.90;;;11.54;98.75;101390.69;4974887;28;20035;-76
2023/06/01 04:06:17;;;;;;;25.17;8.20;;;12.70;99.90;;;11.63;98.37;101392.09;4972595;28;20358;-77
2023/06/01 04:08:49;;;;;;;25.25;7.60;;;12.70;99.90;;;11.75;97.75;101390.72;4973035;28;20415;-77
2023/06/01 04:11:16;;;;;;;31.48;7.57;;;12.80;99.90;;;11.79;97.56;101390.56;4964064;28;20030;-77
2023/06/01 04:13:43;;;;;;;27.00;6.95;;;12.80;99.90;;;11.80;97.11;101389.63;4975837;28;20054;-76
2023/06/01 04:16:10;;;;;;;29.00;7.50;;;12.80;99.90;;;11.67;96.02;101383.97;4958447;28;20063;-76
2023/06/01 04:18:36;;;;;;;25.35;7.13;;;12.80;99.90;;;11.64;95.88;101386.75;4963987;28;20109;-76
2023/06/01 04:21:03;;;;;;;19.10;5.78;;;12.80;99.90;;;11.64;95.70;101392.03;4970944;28;20573;-76
2023/06/01 04:23:29;;;;;;;19.52;5.93;;;12.80;99.90;;;11.62;95.14;101375.41;4956519;28;20137;-76
2023/06/01 04:25:59;;;;;;;26.27;6.00;;;12.80;99.90;;;11.69;94.27;101379.50;4957338;28;20034;-76
2023/06/01 04:28:26;;;;;;;27.00;6.57;;;12.70;99.90;;;11.65;94.13;101390.25;4967040;28;20039;-77
2023/06/01 04:30:52;;;;;;;27.55;6.15;;;12.80;99.90;;;11.72;94.00;101390.84;4947145;28;20041;-77
2023/06/01 04:33:18;;;;;;;16.00;4.88;;;12.80;99.90;;;11.75;93.19;101386.31;4976805;28;20050;-76
2023/06/01 04:35:44;;;;;;;19.02;6.03;;;12.80;99.90;;;11.75;92.43;101380.16;4972357;28;20462;-76
2023/06/01 04:38:10;;;;;;;25.15;6.05;;;12.80;99.90;;;11.79;92.66;101381.75;4976362;28;20035;-77
2023/06/01 04:40:36;;;;;;;26.15;6.18;;;12.90;99.90;;;11.82;92.59;101379.00;4974226;28;20027;-77
2023/06/01 04:43:02;;;;;;;23.38;5.88;;;12.90;99.90;;;11.89;92.81;101376.06;4971563;28;20035;-77
2023/06/01 04:45:33;;;;;;;24.45;7.20;;;12.90;99.90;;;11.83;91.86;101372.78;4997035;28;20419;-76
2023/06/01 04:48:03;;;;;;;18.50;5.22;;;12.90;99.90;;;11.71;90.95;101363.63;4963133;28;20492;-76
2023/06/01 04:50:29;;;;;;;21.13;5.55;;;12.90;99.90;;;11.73;90.70;101360.91;4976741;28;20034;-77
2023/06/01 04:52:55;;;;;;;25.90;5.80;;;12.90;99.90;;;11.82;90.56;101381.66;4959502;28;20050;-77
2023/06/01 04:55:21;;;;;;;20.10;5.65;;;13.00;99.90;;;11.98;90.22;101366.06;4971626;28;20519;-76
2023/06/01 04:57:47;;;;;;;21.23;5.70;;;13.00;99.90;;;12.01;88.42;101374.72;4961799;28;20066;-76
2023/06/01 05:00:14;;;;;;;;;;;12.10;99.90;;;11.87;88.26;101363.84;4987566;28;20031;-76
2023/06/01 05:02:43;;;;;;;15.40;5.00;;;13.00;99.90;;;11.92;87.73;101361.03;4997154;28;19914;-77
2023/06/01 05:05:09;;;;;;;15.65;5.65;;;13.00;99.90;;;11.99;86.90;101360.72;4964737;28;20089;-76
2023/06/01 05:07:39;;;;;;;17.27;4.93;;;13.10;99.90;;;12.00;86.10;101370.34;4957560;28;20043;-77
2023/06/01 05:10:07;;;;;;;31.27;6.10;;;13.00;99.90;;;12.05;86.22;101360.47;4963138;28;20034;-76
2023/06/01 05:12:34;;;;;;;19.95;5.47;;;13.10;99.90;;;12.13;85.98;101367.19;4971546;28;20027;-76
2023/06/01 05:15:06;;;;;;;19.75;4.82;;;13.20;99.90;;;12.19;86.01;101365.13;4963661;28;20041;-76
2023/06/01 05:17:32;;;;;;;22.17;5.35;;;13.10;99.90;;;12.09;85.16;101353.25;4966482;28;20049;-76
2023/06/01 05:19:58;;;;;;;18.63;4.47;;;13.20;99.90;;;12.05;84.66;101356.94;4974514;28;20038;-75
2023/06/01 05:22:25;;;;;;;15.13;4.03;;;13.10;99.90;;;11.95;84.55;101363.56;4969681;28;20026;-76
2023/06/01 05:24:51;;;;;;;14.40;4.30;;;13.10;99.90;;;12.01;84.84;101366.78;4968942;28;20088;-76
2023/06/01 05:27:17;;;;;;;18.70;4.70;;;13.10;99.90;;;11.98;84.45;101364.25;4970928;28;20125;-76
2023/06/01 05:29:43;;;;;;;24.52;5.63;;;13.10;99.90;;;12.08;85.20;101364.75;4973149;28;20558;-77
2023/06/01 05:32:10;;;;;;;20.80;4.78;;;13.10;99.90;;;12.12;84.32;101353.13;4973279;28;20031;-77
2023/06/01 05:34:36;;;;;;;18.17;4.80;;;13.20;99.90;;;12.10;83.82;101349.69;4966068;28;20046;-77
2023/06/01 05:37:03;;;;;;;16.40;5.13;;;13.20;99.90;;;12.13;83.88;101353.97;4965806;28;20057;-76
2023/06/01 05:39:29;;;;;;;16.67;3.85;;;13.20;99.90;;;12.03;84.14;101349.09;4973160;28;20560;-76
2023/06/01 05:41:55;;;;;;;23.63;4.47;;;13.20;99.90;;;12.13;84.38;101352.19;4964672;28;20419;-76
2023/06/01 05:44:21;;;;;;;21.13;4.28;;;13.20;99.90;;;12.18;84.35;101359.91;4954801;28;20542;-76
2023/06/01 05:46:49;;;;;;;18.63;3.75;;;13.20;99.90;;;12.10;84.33;101357.63;4962006;28;20068;-76
2023/06/01 05:49:15;;;;;;;26.55;5.43;;;13.20;99.90;;;12.19;84.02;101364.28;4952805;28;20044;-77
2023/06/01 05:51:42;;;;;;;24.25;4.85;;;13.20;99.90;;;12.13;83.63;101364.53;4957701;28;20023;-76
2023/06/01 05:54:09;;;;;;;13.52;4.00;;;13.20;99.90;;;12.18;83.78;101373.13;4972546;28;20495;-75
2023/06/01 05:56:37;;;;;;;13.85;3.75;;;13.20;99.90;;;12.07;83.09;101373.56;4969587;28;20109;-76
2023/06/01 05:59:03;;;;;;;22.92;4.78;;;13.20;99.90;;;12.12;83.27;101379.53;4955380;28;20041;-75
2023/06/01 06:01:29;;;;;;;19.20;3.80;;;13.20;99.90;;;12.25;83.02;101379.88;4959102;28;20034;-75
2023/06/01 06:03:57;;;;;;;16.38;3.45;;;13.30;99.90;;;12.21;82.04;101371.22;4964422;28;20040;-76
2023/06/01 06:06:23;;;;;;;20.02;4.32;;;13.30;99.90;;;12.27;82.09;101375.38;4973573;28;20089;-75
2023/06/01 06:08:50;;;;;;;15.35;4.20;;;13.30;99.90;;;12.34;82.65;101368.03;4953169;28;20045;-76
2023/06/01 06:11:16;;;;;;;16.38;4.20;;;13.40;99.90;;;12.43;82.34;101371.13;4972315;28;20038;-75
2023/06/01 06:13:42;;;;;;;17.38;3.92;;;13.40;99.90;;;12.37;81.77;101373.19;4957415;28;20029;-75
2023/06/01 06:16:08;;;;;;;17.02;3.22;;;13.40;99.90;;;12.35;81.05;101369.75;4966479;28;20050;-75
2023/06/01 06:18:33;;;;;;;25.52;3.92;;;13.40;99.90;;;12.26;81.60;101369.22;4975283;28;20109;-76
2023/06/01 06:21:00;;;;;;;;;;;13.40;99.90;;;12.29;82.12;101370.91;4976713;28;20034;-76
2023/06/01 06:23:27;;;;;;;14.90;4.10;;;13.40;99.90;;;12.44;81.66;101375.50;4973957;28;19914;-76
2023/06/01 06:25:53;;;;;;;12.52;3.05;;;13.50;99.90;;;12.40;81.50;101371.28;4972174;28;20034;-76
2023/06/01 06:28:21;;;;;;;8.85;2.78;;;13.50;99.90;;;12.35;81.42;101373.25;4974988;28;20049;-75
2023/06/01 06:30:47;;;;;;;15.18;2.83;;;13.40;99.90;;;12.35;81.17;101370.59;4965340;28;20078;-76
2023/06/01 06:33:12;;;;;;;18.75;4.50;;;13.50;99.90;;;12.44;81.72;101371.97;4973412;28;20530;-76
2023/06/01 06:35:39;;;;;;;;;;;13.50;99.90;;;12.56;81.05;101367.94;4951077;28;20036;-76
2023/06/01 06:38:04;;;;;;;18.88;3.63;;;13.60;99.90;;;12.71;80.38;101367.25;4984626;28;20500;-76
2023/06/01 06:40:30;;;;;;;17.13;3.60;;;13.60;99.90;;;12.61;80.20;101364.19;4972652;28;20043;-75
2023/06/01 06:42:56;;;;;;;12.40;3.47;;;13.70;99.90;;;12.71;79.99;101369.91;4969484;28;20038;-75
2023/06/01 06:45:21;;;;;;;;;;;13.70;99.90;;;12.78;80.18;101373.97;4966377;28;20033;-76
2023/06/01 06:47:47;;;;;;;13.98;3.40;;;13.80;99.90;;;12.87;79.26;101376.22;4968934;28;19924;-75
2023/06/01 06:50:13;;;;;;;;;;;13.80;99.90;;;12.78;78.88;101384.53;4952214;28;20054;-76
2023/06/01 06:52:39;;;;;;;12.07;3.20;;;13.70;99.90;;;12.62;78.39;101384.38;4965452;28;19922;-75
2023/06/01 06:55:06;;;;;;;12.95;2.88;;;13.70;99.90;;;12.66;78.96;101374.53;4973587;28;20046;-76
2023/06/01 06:57:34;;;;;;;17.05;3.45;;;13.80;99.90;;;12.76;79.23;101378.47;4952311;28;20562;-75
2023/06/01 07:00:13;;;;;;;14.30;3.05;;;13.90;99.90;;;12.93;78.98;101381.19;4953053;28;20038;-75
2023/06/01 07:02:41;;;;;;;12.05;3.45;;;14.00;99.90;;;13.09;78.29;101388.44;4967962;28;20031;-75
2023/06/01 07:05:08;;;;;;;13.77;3.13;;;14.10;99.90;;;13.25;78.16;101381.47;4974565;28;20037;-75
2023/06/01 07:07:34;;;;;;;17.92;3.55;;;14.20;99.90;;;13.43;77.63;101392.16;4965202;28;20054;-75
2023/06/01 07:10:00;;;;;;;17.88;3.53;;;14.20;99.90;;;13.50;77.44;101406.81;4964534;28;20482;-79
2023/06/01 07:12:26;;;;;;;15.70;3.50;;;14.40;99.90;;;13.56;76.98;101398.56;4970065;28;20027;-76
2023/06/01 07:14:51;;;;;;;;;;;14.50;99.90;;;13.64;77.43;101398.19;4971544;28;20397;-76
2023/06/01 07:17:17;;;;;;;19.08;3.80;;;14.60;99.90;;;13.75;77.11;101391.44;4984348;28;19926;-76
2023/06/01 07:19:43;;;;;;;26.20;4.40;;;14.70;99.90;;;13.96;77.26;101393.97;4954234;28;20479;-76
2023/06/01 07:22:09;;;;;;;27.40;4.43;;;14.80;99.90;;;14.10;76.59;101399.44;4970167;28;20035;-76
2023/06/01 07:24:35;;;;;;;;;;;14.90;99.90;;;14.08;75.91;101396.00;4959771;28;20553;-76
2023/06/01 07:27:01;;;;;;;20.65;4.65;;;14.90;99.90;;;13.96;75.88;101393.97;4992856;28;20008;-75
2023/06/01 07:29:27;;;;;;;;;;;14.90;99.90;;;14.00;76.22;101379.63;4969995;28;20046;-76
2023/06/01 07:31:53;;;;;;;22.88;4.63;;;14.90;99.90;;;14.05;75.39;101379.41;4963653;28;20438;-76
2023/06/01 07:34:19;;;;;;;;;;;14.90;99.90;;;14.09;74.91;101387.09;4965344;28;20050;-76
2023/06/01 07:36:49;;;;;;;18.13;3.42;;;15.10;99.90;;;14.18;74.65;101387.59;4973805;28;20526;-76
2023/06/01 07:39:15;;;;;;;19.98;3.67;;;15.10;99.90;;;14.30;74.63;101385.16;4963566;28;20097;-76
2023/06/01 07:41:44;;;;;;;18.00;4.18;;;15.10;99.90;;;14.35;74.36;101385.75;4976355;28;20399;-75
2023/06/01 07:44:10;;;;;;;13.10;3.22;;;15.20;99.90;;;14.33;73.87;101382.34;4977149;28;20039;-76
2023/06/01 07:46:35;;;;;;;22.58;4.78;;;15.20;99.90;;;14.41;74.04;101386.41;4956642;28;20041;-76
2023/06/01 07:49:03;;;;;;;16.88;3.55;;;15.30;99.90;;;14.59;73.43;101384.59;4973081;28;20034;-75
2023/06/01 07:51:29;;;;;;;12.02;2.92;;;15.40;99.90;;;14.82;72.69;101394.84;4971723;28;20407;-76
2023/06/01 07:53:57;;;;;;;18.63;3.75;;;15.60;99.90;;;14.87;72.31;101386.63;4976643;28;20035;-76
2023/06/01 07:56:28;;;;;;;17.85;3.40;;;15.70;99.90;;;15.08;71.57;101392.56;5002062;28;20654;-75
2023/06/01 07:58:54;;;;;;;12.90;3.20;;;15.80;99.90;;;15.20;71.15;101394.53;4948415;28;20648;-75
2023/06/01 08:01:20;;;;;;;17.83;3.50;;;16.00;99.90;;;15.36;70.91;101391.91;4964170;28;20125;-75
2023/06/01 08:03:48;;;;;;;;;;;16.00;99.90;;;15.52;69.76;101397.19;4974367;28;20250;-74
2023/06/01 08:06:15;;;;;;;11.30;3.17;;;16.20;99.90;;;15.61;69.16;101396.66;4969687;28;21671;-75
2023/06/01 08:08:41;;;;;;;19.02;3.50;;;16.30;99.90;;;15.77;68.72;101388.72;4972620;28;20388;-75
2023/06/01 08:11:09;;;;;;;17.15;3.50;;;16.40;99.90;;;15.84;68.30;101392.72;4974537;28;20185;-75
2023/06/01 08:13:36;;;;;;;17.05;4.35;;;16.60;99.90;;;15.94;68.34;101387.75;4962730;28;20045;-75
2023/06/01 08:16:03;;;;;;;17.02;3.35;;;16.60;99.90;;;15.79;67.44;101385.03;4966671;28;20035;-74
2023/06/01 08:18:32;;;;;;;17.58;3.65;;;16.50;99.90;;;15.53;67.73;101383.84;4951656;28;20035;-75
2023/06/01 08:21:00;;;;;;;20.98;3.67;;;16.40;99.90;;;15.58;68.41;101376.44;4957159;28;20034;-75
2023/06/01 08:23:26;;;;;;;15.05;3.25;;;16.50;99.90;;;15.78;68.02;101385.94;4971060;28;20042;-75
2023/06/01 08:25:52;;;;;;;21.65;4.18;;;16.60;99.90;;;15.93;67.49;101386.84;4974732;28;20068;-76
2023/06/01 08:28:18;;;;;;;15.23;3.65;;;16.70;99.90;;;16.00;66.82;101382.03;4968151;28;20372;-76
2023/06/01 08:30:44;;;;;;;;;;;16.70;99.90;;;15.98;66.40;101383.94;4976078;28;20039;-74
2023/06/01 08:33:09;;;;;;;10.07;2.65;;;16.70;99.90;;;15.75;66.38;101372.00;4972172;28;19924;-74
2023/06/01 08:35:35;;;;;;;;;;;16.70;99.90;;;15.61;66.31;101370.09;4972547;28;20555;-75
2023/06/01 08:38:02;;;;;;;16.73;3.63;;;16.60;99.90;;;15.89;66.99;101380.00;4987828;28;19967;-76
2023/06/01 08:40:31;;;;;;;18.52;3.80;;;16.60;99.90;;;15.92;66.47;101384.31;4967465;28;20558;-76
2023/06/01 08:43:19;;;;;;;13.38;3.25;;;16.80;99.90;;;16.11;65.98;101382.28;4966186;28;20050;-74
2023/06/01 08:45:47;;;;;;;18.60;3.78;;;17.00;99.90;;;16.65;65.13;101391.44;4968312;28;20038;-75
2023/06/01 08:48:17;;;;;;;15.77;3.50;;;17.20;99.90;;;16.81;63.59;101392.25;4948717;28;20042;-74
2023/06/01 08:50:48;;;;;;;16.42;3.53;;;17.40;99.90;;;16.93;63.82;101395.94;4957124;28;20050;-75
2023/06/01 08:53:18;;;;;;;15.13;3.15;;;17.50;99.90;;;16.78;63.58;101392.41;5006410;28;20038;-76
2023/06/01 08:55:46;;;;;;;14.23;3.45;;;17.50;99.90;;;16.83;64.07;101397.50;4955270;28;20435;-75
2023/06/01 08:58:15;;;;;;;18.15;3.90;;;17.60;99.90;;;17.01;63.12;101391.84;4955412;28;20041;-75
2023/06/01 09:00:42;;;;;;;12.80;3.28;;;17.60;99.90;;;16.79;63.10;101389.66;4968716;28;20677;-74
2023/06/01 09:03:11;;;;;;;13.75;2.70;;;17.50;99.90;;;16.55;63.17;101385.84;4975343;28;20039;-75
2023/06/01 09:05:39;;;;;;;16.02;3.17;;;17.40;99.90;;;16.59;63.69;101385.56;4974348;28;20518;-75
2023/06/01 09:08:05;;;;;;;11.40;3.05;;;17.40;99.90;;;16.66;63.90;101386.03;4974232;28;20035;-75
2023/06/01 09:10:31;;;;;;;16.60;3.83;;;17.50;99.90;;;17.00;63.26;101406.13;4973362;28;20046;-75
2023/06/01 09:13:00;;;;;;;16.05;3.17;;;17.70;99.90;;;16.99;62.97;101395.56;4973064;28;20640;-75
2023/06/01 09:15:27;;;;;;;14.10;4.03;;;17.70;99.90;;;17.17;63.71;101404.16;4966776;28;20058;-76
2023/06/01 09:18:13;;;;;;;19.38;4.40;;;17.90;99.90;;;17.31;63.01;101409.47;4979697;28;20208;-75
2023/06/01 09:20:44;;;;;;;16.10;3.78;;;17.80;99.90;;;17.08;62.05;101404.75;4962186;28;20081;-75
2023/06/01 09:23:23;;;;;;;15.93;3.92;;;18.00;99.90;;;17.46;61.92;101410.31;4971170;28;20046;-78
2023/06/01 09:26:08;;;;;;;20.55;3.55;;;18.10;99.90;;;17.51;61.99;101410.84;4972793;28;20057;-77
2023/06/01 09:28:54;;;;;;;17.08;3.35;;;18.20;99.90;;;17.76;61.19;101414.59;4961552;28;20113;-76
2023/06/01 09:31:49;;;;;;;18.60;3.58;;;18.40;99.90;;;17.83;60.72;101395.44;4974205;28;20037;-75
2023/06/01 09:34:22;;;;;;;15.30;2.97;;;18.40;99.90;;;17.91;61.37;101410.09;4967557;28;20109;-75
2023/06/01 09:36:50;;;;;;;12.52;3.17;;;18.50;99.90;;;17.97;61.26;101412.31;4963512;28;20039;-75
2023/06/01 09:39:20;;;;;;;29.83;5.30;;;18.60;99.90;;;18.19;61.16;101411.75;4975730;28;20034;-75
2023/06/01 09:41:58;;;;;;;15.57;4.00;;;18.80;99.90;;;18.46;60.49;101414.31;4971818;28;20044;-76
2023/06/01 09:44:27;;;;;;;21.85;4.00;;;19.00;99.90;;;18.53;60.18;101409.41;4959091;28;20039;-76
2023/06/01 09:47:12;;;;;;;18.30;3.83;;;19.10;99.90;;;18.67;60.17;101421.81;4970348;28;20042;-75
2023/06/01 09:49:42;;;;;;;9.38;2.80;;;19.10;99.90;;;18.42;58.76;101415.50;4966417;28;20061;-76
2023/06/01 09:52:16;;;;;;;20.25;3.95;;;19.10;99.90;;;18.53;58.59;101409.41;4976555;28;20034;-75
2023/06/01 09:54:51;;;;;;;19.05;4.15;;;19.30;99.90;;;18.81;58.14;101419.91;4974114;28;20037;-75
2023/06/01 09:57:28;;;;;;;16.50;3.70;;;19.30;99.90;;;18.68;58.16;101419.00;4964883;28;20401;-76
2023/06/01 09:59:57;;;;;;;13.18;2.85;;;19.20;99.90;;;18.43;57.97;101422.56;4956710;28;20522;-75
2023/06/01 10:02:31;;;;;;;17.90;3.70;;;19.20;99.90;;;18.49;58.12;101408.78;4969927;28;20447;-76
2023/06/01 10:05:03;;;;;;;14.65;3.42;;;19.40;99.90;;;19.07;57.32;101414.56;4972983;28;20031;-76
2023/06/01 10:07:33;;;;;;;20.48;3.67;;;19.70;99.90;;;19.54;57.31;101428.06;4971614;28;20125;-75
2023/06/01 10:10:03;;;;;;;17.15;3.97;;;20.10;99.90;;;19.84;55.90;101438.34;5002052;28;20046;-76
2023/06/01 10:12:31;;;;;;;11.00;2.67;;;20.20;99.90;;;19.53;55.67;101424.56;4972207;28;20049;-76
2023/06/01 10:15:02;;;;;;;12.90;2.92;;;20.00;99.90;;;19.21;56.31;101414.41;4964616;28;20064;-75